createdAt,value
2023-04-15T00:01:45.215Z,9.10
2023-04-15T00:04:13.096Z,9.12
2023-04-15T00:06:41.324Z,9.14
2023-04-15T00:09:09.359Z,9.13
2023-04-15T00:11:37.069Z,9.14
2023-04-15T00:14:06.314Z,9.15
2023-04-15T00:16:34.210Z,9.15
2023-04-15T00:19:02.359Z,9.20
2023-04-15T00:21:30.620Z,9.25
2023-04-15T00:23:58.590Z,9.29
2023-04-15T00:26:27.064Z,9.35
2023-04-15T00:28:54.880Z,9.41
2023-04-15T00:31:23.391Z,9.47
2023-04-15T00:33:51.668Z,9.52
2023-04-15T00:36:19.553Z,9.56
2023-04-15T00:38:47.454Z,9.61
2023-04-15T00:41:15.560Z,9.66
2023-04-15T00:43:43.518Z,9.69
2023-04-15T00:46:13.721Z,9.70
2023-04-15T00:48:42.630Z,9.67
2023-04-15T00:51:11.477Z,9.64
2023-04-15T00:53:39.346Z,9.60
2023-04-15T00:56:07.712Z,9.57
2023-04-15T00:58:36.300Z,9.54
2023-04-15T01:01:04.513Z,9.51
2023-04-15T01:03:32.660Z,9.48
2023-04-15T01:06:03.599Z,9.46
2023-04-15T01:08:32.287Z,9.44
2023-04-15T01:11:02.257Z,9.42
2023-04-15T01:13:30.606Z,9.35
2023-04-15T01:15:58.605Z,9.29
2023-04-15T01:18:27.545Z,9.23
2023-04-15T01:20:55.408Z,9.20
2023-04-15T01:23:25.344Z,9.18
2023-04-15T01:25:53.744Z,9.17
2023-04-15T01:28:21.623Z,9.17
2023-04-15T01:30:49.996Z,9.15
2023-04-15T01:33:17.980Z,9.11
2023-04-15T01:35:47.334Z,9.09
2023-04-15T01:38:16.292Z,9.09
2023-04-15T01:40:46.536Z,9.07
2023-04-15T01:43:15.406Z,9.05
2023-04-15T01:45:43.742Z,9.03
2023-04-15T01:48:12.409Z,9.01
2023-04-15T01:50:40.395Z,9.07
2023-04-15T01:53:08.835Z,9.11
2023-04-15T01:55:37.160Z,9.16
2023-04-15T01:58:05.119Z,9.21
2023-04-15T02:00:33.042Z,9.27
2023-04-15T02:03:01.022Z,9.31
2023-04-15T02:05:29.221Z,9.34
2023-04-15T02:07:57.362Z,9.34
2023-04-15T02:10:25.168Z,9.33
2023-04-15T02:12:54.222Z,9.33
2023-04-15T02:15:22.782Z,9.29
2023-04-15T02:17:52.902Z,9.25
2023-04-15T02:20:21.438Z,9.21
2023-04-15T02:22:49.726Z,9.18
2023-04-15T02:25:17.878Z,9.15
2023-04-15T02:27:45.718Z,9.12
2023-04-15T02:30:13.643Z,9.08
2023-04-15T02:32:43.861Z,9.02
2023-04-15T02:35:12.517Z,8.98
2023-04-15T02:37:45.891Z,8.93
2023-04-15T02:40:13.959Z,8.89
2023-04-15T02:42:42.822Z,8.87
2023-04-15T02:45:13.215Z,8.83
2023-04-15T02:47:41.711Z,8.77
2023-04-15T02:50:12.656Z,8.74
2023-04-15T02:52:41.940Z,8.71
2023-04-15T02:55:10.625Z,8.68
2023-04-15T02:57:39.329Z,8.64
2023-04-15T03:00:11.799Z,8.60
2023-04-15T03:02:42.353Z,8.58
2023-04-15T03:05:14.376Z,8.58
2023-04-15T03:07:49.259Z,8.60
2023-04-15T03:10:17.288Z,8.60
2023-04-15T03:12:47.258Z,8.56
2023-04-15T03:15:18.655Z,8.53
2023-04-15T03:17:49.662Z,8.50
2023-04-15T03:20:17.610Z,8.48
2023-04-15T03:22:45.472Z,8.45
2023-04-15T03:25:13.766Z,8.42
2023-04-15T03:27:41.976Z,8.42
2023-04-15T03:30:10.241Z,8.43
2023-04-15T03:32:39.027Z,8.43
2023-04-15T03:35:08.332Z,8.44
2023-04-15T03:37:36.035Z,8.43
2023-04-15T03:40:04.066Z,8.41
2023-04-15T03:42:32.191Z,8.36
2023-04-15T03:44:59.960Z,8.31
2023-04-15T03:47:27.940Z,8.26
2023-04-15T03:49:56.096Z,8.23
2023-04-15T03:52:23.895Z,8.22
2023-04-15T03:54:51.690Z,8.19
2023-04-15T03:57:20.000Z,8.16
2023-04-15T03:59:47.790Z,8.14
2023-04-15T04:02:15.935Z,8.10
2023-04-15T04:04:44.010Z,8.06
2023-04-15T04:07:18.039Z,8.02
2023-04-15T04:09:47.306Z,8.00
2023-04-15T04:12:15.661Z,7.97
2023-04-15T04:14:43.449Z,7.94
2023-04-15T04:17:11.803Z,7.92
2023-04-15T04:19:39.788Z,7.90
2023-04-15T04:22:07.573Z,7.92
2023-04-15T04:24:35.477Z,7.92
2023-04-15T04:27:03.653Z,7.94
2023-04-15T04:29:31.600Z,7.98
2023-04-15T04:31:59.610Z,8.03
2023-04-15T04:34:27.585Z,8.10
2023-04-15T04:36:55.902Z,8.15
2023-04-15T04:39:23.917Z,8.21
2023-04-15T04:41:52.493Z,8.26
2023-04-15T04:44:20.522Z,8.30
2023-04-15T04:46:48.306Z,8.36
2023-04-15T04:49:16.035Z,8.41
2023-04-15T04:51:43.819Z,8.46
2023-04-15T04:54:11.869Z,8.50
2023-04-15T04:56:39.971Z,8.52
2023-04-15T04:59:07.871Z,8.52
2023-04-15T05:01:36.057Z,8.52
2023-04-15T05:04:05.355Z,8.54
2023-04-15T05:06:33.473Z,8.53
2023-04-15T05:09:01.974Z,8.53
2023-04-15T05:11:30.263Z,8.59
2023-04-15T05:13:59.941Z,8.60
2023-04-15T05:16:27.821Z,8.61
2023-04-15T05:18:55.783Z,8.66
2023-04-15T05:21:23.877Z,8.72
2023-04-15T05:23:52.135Z,8.78
2023-04-15T05:26:19.925Z,8.85
2023-04-15T05:28:47.983Z,8.94
2023-04-15T05:31:15.948Z,9.06
2023-04-15T05:33:43.885Z,9.17
2023-04-15T05:36:12.206Z,9.36
2023-04-15T05:38:40.110Z,9.62
2023-04-15T05:41:07.898Z,9.98
2023-04-15T05:43:35.727Z,10.34
2023-04-15T05:46:03.681Z,10.54
2023-04-15T05:48:31.841Z,10.69
2023-04-15T05:51:00.157Z,10.76
2023-04-15T05:53:27.937Z,10.69
2023-04-15T05:55:55.914Z,10.59
2023-04-15T05:58:23.684Z,10.51
2023-04-15T06:00:51.661Z,10.48
2023-04-15T06:03:19.753Z,10.45
2023-04-15T06:05:47.551Z,10.49
2023-04-15T06:08:15.617Z,10.72
2023-04-15T06:10:43.416Z,11.01
2023-04-15T06:13:11.208Z,11.12
2023-04-15T06:15:39.089Z,11.12
2023-04-15T06:18:07.001Z,11.11
2023-04-15T06:20:34.869Z,11.11
2023-04-15T06:23:02.985Z,11.14
2023-04-15T06:25:30.939Z,11.31
2023-04-15T06:27:59.375Z,11.64
2023-04-15T06:30:27.240Z,11.96
2023-04-15T06:32:55.262Z,12.15
2023-04-15T06:35:23.197Z,12.28
2023-04-15T06:37:52.009Z,12.46
2023-04-15T06:40:19.842Z,12.64
2023-04-15T06:42:47.640Z,12.81
2023-04-15T06:45:17.833Z,12.92
2023-04-15T06:47:45.781Z,12.95
2023-04-15T06:50:13.757Z,12.99
2023-04-15T06:52:41.657Z,13.06
2023-04-15T06:55:10.149Z,13.09
2023-04-15T06:57:38.010Z,13.10
2023-04-15T07:00:06.438Z,13.13
2023-04-15T07:02:34.463Z,13.24
2023-04-15T07:05:02.806Z,13.35
2023-04-15T07:07:30.891Z,13.43
2023-04-15T07:09:58.788Z,13.51
2023-04-15T07:12:26.557Z,13.56
2023-04-15T07:14:54.545Z,13.55
2023-04-15T07:17:22.377Z,13.62
2023-04-15T07:19:50.233Z,13.66
2023-04-15T07:22:18.400Z,13.72
2023-04-15T07:24:46.738Z,13.86
2023-04-15T07:27:14.514Z,13.92
2023-04-15T07:29:42.327Z,13.93
2023-04-15T07:32:10.880Z,14.01
2023-04-15T07:34:38.757Z,14.05
2023-04-15T07:37:06.554Z,14.09
2023-04-15T07:39:34.292Z,14.15
2023-04-15T07:42:02.631Z,14.30
2023-04-15T07:44:30.656Z,14.41
2023-04-15T07:46:58.800Z,14.46
2023-04-15T07:49:26.560Z,14.57
2023-04-15T07:51:55.217Z,14.78
2023-04-15T07:54:23.074Z,14.90
2023-04-15T07:56:50.902Z,15.00
2023-04-15T07:59:18.687Z,14.98
2023-04-15T08:01:46.723Z,15.01
2023-04-15T08:04:14.823Z,14.98
2023-04-15T08:06:43.667Z,14.95
2023-04-15T08:09:11.450Z,15.06
2023-04-15T08:11:39.229Z,15.27
2023-04-15T08:14:07.169Z,15.46
2023-04-15T08:16:35.355Z,15.61
2023-04-15T08:19:03.979Z,15.82
2023-04-15T08:21:31.965Z,15.98
2023-04-15T08:24:00.574Z,16.14
2023-04-15T08:26:28.365Z,16.14
2023-04-15T08:28:56.572Z,16.06
2023-04-15T08:31:26.906Z,16.06
2023-04-15T08:33:57.068Z,16.06
2023-04-15T08:36:25.008Z,16.14
2023-04-15T08:38:52.817Z,16.29
2023-04-15T08:41:24.559Z,16.29
2023-04-15T08:44:01.514Z,16.26
2023-04-15T08:46:31.269Z,16.03
2023-04-15T08:48:59.182Z,15.84
2023-04-15T08:51:27.232Z,15.92
2023-04-15T08:53:55.511Z,16.09
2023-04-15T08:56:29.524Z,16.21
2023-04-15T08:58:57.917Z,16.35
2023-04-15T09:01:26.570Z,16.48
2023-04-15T09:03:54.990Z,16.64
2023-04-15T09:06:23.379Z,16.67
2023-04-15T09:08:51.929Z,16.65
2023-04-15T09:11:21.656Z,16.65
2023-04-15T09:13:49.885Z,16.61
2023-04-15T09:16:17.779Z,16.67
2023-04-15T09:18:45.684Z,16.51
2023-04-15T09:21:14.663Z,16.24
2023-04-15T09:23:54.263Z,16.17
2023-04-15T09:26:30.808Z,16.33
2023-04-15T09:29:09.539Z,16.63
2023-04-15T09:31:37.865Z,16.90
2023-04-15T09:34:05.965Z,16.98
2023-04-15T09:36:51.821Z,16.96
2023-04-15T09:39:20.038Z,17.03
2023-04-15T09:42:03.873Z,17.05
2023-04-15T09:44:31.781Z,16.99
2023-04-15T09:46:59.787Z,16.95
2023-04-15T09:49:28.389Z,16.80
2023-04-15T09:52:06.023Z,16.78
2023-04-15T09:54:38.209Z,16.76
2023-04-15T09:57:07.381Z,16.66
2023-04-15T09:59:36.134Z,16.71
2023-04-15T10:02:10.082Z,16.90
2023-04-15T10:04:40.109Z,16.97
2023-04-15T10:07:12.398Z,16.74
2023-04-15T10:09:40.288Z,16.74
2023-04-15T10:12:08.940Z,17.00
2023-04-15T10:14:38.732Z,17.19
2023-04-15T10:17:08.327Z,17.28
2023-04-15T10:19:37.635Z,17.42
2023-04-15T10:22:06.952Z,17.56
2023-04-15T10:24:34.924Z,17.75
2023-04-15T10:27:04.332Z,17.70
2023-04-15T10:29:32.548Z,17.46
2023-04-15T10:32:01.244Z,17.14
2023-04-15T10:34:29.724Z,16.85
2023-04-15T10:37:04.379Z,16.61
2023-04-15T10:39:35.038Z,16.42
2023-04-15T10:42:07.581Z,16.22
2023-04-15T10:44:56.785Z,15.97
2023-04-15T10:47:25.802Z,15.83
2023-04-15T10:50:01.115Z,15.80
2023-04-15T10:52:29.423Z,15.72
2023-04-15T10:55:12.280Z,15.60
2023-04-15T10:57:41.017Z,15.45
2023-04-15T11:00:09.083Z,15.53
2023-04-15T11:02:43.565Z,15.88
2023-04-15T11:05:12.063Z,16.32
2023-04-15T11:07:48.911Z,16.67
2023-04-15T11:10:24.528Z,17.05
2023-04-15T11:12:59.959Z,17.33
2023-04-15T11:15:33.039Z,17.52
2023-04-15T11:18:13.070Z,17.58
2023-04-15T11:20:42.125Z,17.25
2023-04-15T11:23:14.364Z,16.89
2023-04-15T11:25:44.319Z,16.86
2023-04-15T11:28:12.969Z,17.11
2023-04-15T11:30:42.242Z,17.41
2023-04-15T11:33:12.366Z,17.71
2023-04-15T11:35:41.302Z,17.80
2023-04-15T11:38:10.120Z,17.96
2023-04-15T11:40:38.593Z,18.09
2023-04-15T11:43:06.479Z,18.06
2023-04-15T11:45:34.927Z,17.77
2023-04-15T11:48:10.878Z,17.61
2023-04-15T11:50:40.895Z,17.58
2023-04-15T11:53:09.867Z,17.61
2023-04-15T11:55:44.789Z,17.54
2023-04-15T11:58:16.396Z,17.52
2023-04-15T12:00:53.089Z,17.58
2023-04-15T12:03:23.305Z,17.71
2023-04-15T12:06:06.350Z,17.81
2023-04-15T12:08:55.939Z,17.79
2023-04-15T12:11:26.849Z,17.78
2023-04-15T12:13:56.722Z,17.95
2023-04-15T12:16:24.963Z,17.98
2023-04-15T12:18:55.904Z,17.81
2023-04-15T12:21:25.242Z,17.75
2023-04-15T12:23:56.903Z,17.70
2023-04-15T12:26:34.248Z,17.69
2023-04-15T12:29:02.612Z,17.72
2023-04-15T12:31:30.774Z,17.58
2023-04-15T12:33:59.423Z,17.39
2023-04-15T12:36:27.734Z,17.25
2023-04-15T12:38:56.107Z,17.07
2023-04-15T12:41:24.535Z,16.99
2023-04-15T12:43:52.575Z,17.02
2023-04-15T12:46:20.570Z,17.11
2023-04-15T12:48:48.360Z,17.26
2023-04-15T12:51:16.213Z,17.60
2023-04-15T12:53:44.080Z,17.83
2023-04-15T12:56:12.304Z,17.93
2023-04-15T12:58:40.041Z,17.83
2023-04-15T13:01:07.916Z,17.68
2023-04-15T13:03:36.025Z,17.76
2023-04-15T13:06:05.102Z,18.04
2023-04-15T13:08:33.252Z,18.12
2023-04-15T13:11:01.498Z,17.99
2023-04-15T13:13:29.588Z,17.77
2023-04-15T13:15:57.740Z,17.64
2023-04-15T13:18:25.801Z,17.64
2023-04-15T13:20:54.541Z,17.54
2023-04-15T13:23:22.228Z,17.34
2023-04-15T13:25:49.954Z,17.18
2023-04-15T13:28:18.358Z,17.17
2023-04-15T13:30:46.083Z,17.26
2023-04-15T13:33:13.988Z,17.35
2023-04-15T13:35:41.952Z,17.57
2023-04-15T13:38:09.764Z,17.78
2023-04-15T13:40:37.939Z,17.99
2023-04-15T13:43:05.985Z,18.05
2023-04-15T13:45:33.790Z,18.03
2023-04-15T13:48:02.769Z,18.01
2023-04-15T13:50:30.663Z,17.95
2023-04-15T13:52:58.385Z,17.92
2023-04-15T13:55:27.117Z,17.84
2023-04-15T13:57:56.510Z,17.92
2023-04-15T14:00:24.579Z,17.97
2023-04-15T14:02:52.521Z,17.89
2023-04-15T14:05:21.196Z,17.83
2023-04-15T14:07:49.059Z,17.77
2023-04-15T14:10:16.778Z,17.62
2023-04-15T14:12:44.586Z,17.36
2023-04-15T14:15:12.696Z,17.21
2023-04-15T14:17:42.380Z,17.01
2023-04-15T14:20:10.652Z,16.89
2023-04-15T14:22:38.519Z,16.83
2023-04-15T14:25:06.670Z,16.80
2023-04-15T14:27:34.940Z,16.69
2023-04-15T14:30:02.875Z,16.66
2023-04-15T14:32:30.764Z,16.70
2023-04-15T14:34:58.831Z,16.68
2023-04-15T14:37:27.197Z,16.54
2023-04-15T14:39:55.038Z,16.50
2023-04-15T14:42:22.724Z,16.54
2023-04-15T14:44:50.661Z,16.53
2023-04-15T14:47:18.756Z,16.40
2023-04-15T14:49:46.686Z,16.27
2023-04-15T14:52:14.602Z,16.19
2023-04-15T14:54:42.647Z,16.12
2023-04-15T14:57:10.464Z,16.06
2023-04-15T14:59:38.270Z,15.97
2023-04-15T15:02:06.471Z,15.86
2023-04-15T15:04:36.157Z,15.79
2023-04-15T15:07:04.143Z,15.77
2023-04-15T15:09:33.924Z,15.72
2023-04-15T15:12:03.099Z,15.74
2023-04-15T15:14:30.868Z,15.82
2023-04-15T15:16:58.780Z,15.86
2023-04-15T15:19:26.614Z,15.90
2023-04-15T15:21:54.353Z,15.92
2023-04-15T15:24:22.541Z,15.87
2023-04-15T15:26:50.535Z,15.80
2023-04-15T15:29:18.306Z,15.73
2023-04-15T15:31:46.788Z,15.68
2023-04-15T15:34:16.187Z,15.61
2023-04-15T15:36:43.902Z,15.57
2023-04-15T15:39:11.704Z,15.51
2023-04-15T15:41:39.544Z,15.44
2023-04-15T15:44:07.322Z,15.37
2023-04-15T15:46:35.268Z,15.32
2023-04-15T15:49:04.470Z,15.22
2023-04-15T15:51:32.909Z,15.13
2023-04-15T15:54:01.033Z,15.11
2023-04-15T15:56:28.890Z,15.08
2023-04-15T15:58:56.614Z,15.06
2023-04-15T16:01:24.494Z,15.05
2023-04-15T16:03:52.624Z,15.04
2023-04-15T16:06:20.768Z,15.06
2023-04-15T16:08:48.818Z,15.05
2023-04-15T16:11:16.661Z,15.01
2023-04-15T16:13:44.573Z,14.95
2023-04-15T16:16:12.944Z,14.90
2023-04-15T16:18:40.601Z,14.84
2023-04-15T16:21:08.500Z,14.82
2023-04-15T16:23:36.904Z,14.80
2023-04-15T16:26:04.885Z,14.78
2023-04-15T16:28:32.756Z,14.78
2023-04-15T16:31:00.697Z,14.79
2023-04-15T16:33:28.470Z,14.79
2023-04-15T16:35:56.486Z,14.78
2023-04-15T16:38:24.426Z,14.78
2023-04-15T16:40:52.182Z,14.77
2023-04-15T16:43:20.351Z,14.74
2023-04-15T16:45:51.553Z,14.75
2023-04-15T16:48:20.129Z,14.75
2023-04-15T16:50:48.004Z,14.75
2023-04-15T16:53:16.194Z,14.73
2023-04-15T16:55:44.231Z,14.71
2023-04-15T16:58:11.985Z,14.70
2023-04-15T17:00:39.917Z,14.71
2023-04-15T17:03:07.909Z,14.71
2023-04-15T17:05:36.215Z,14.72
2023-04-15T17:08:04.521Z,14.71
2023-04-15T17:10:32.354Z,14.67
2023-04-15T17:13:00.408Z,14.62
2023-04-15T17:15:28.224Z,14.58
2023-04-15T17:17:56.544Z,14.55
2023-04-15T17:20:24.612Z,14.53
2023-04-15T17:22:52.474Z,14.50
2023-04-15T17:25:20.395Z,14.45
2023-04-15T17:27:48.117Z,14.41
2023-04-15T17:30:16.272Z,14.36
2023-04-15T17:32:44.211Z,14.31
2023-04-15T17:35:12.396Z,14.25
2023-04-15T17:37:40.668Z,14.18
2023-04-15T17:40:09.032Z,14.11
2023-04-15T17:42:37.156Z,14.02
2023-04-15T17:45:05.673Z,13.94
2023-04-15T17:47:33.846Z,13.83
2023-04-15T17:50:01.982Z,13.77
2023-04-15T17:52:30.155Z,13.72
2023-04-15T17:54:58.174Z,13.65
2023-04-15T17:57:26.195Z,13.59
2023-04-15T17:59:53.966Z,13.53
2023-04-15T18:02:21.846Z,13.48
2023-04-15T18:04:50.116Z,13.43
2023-04-15T18:07:18.230Z,13.37
2023-04-15T18:09:46.419Z,13.30
2023-04-15T18:12:14.617Z,13.23
2023-04-15T18:14:42.421Z,13.20
2023-04-15T18:17:11.496Z,13.17
2023-04-15T18:19:39.561Z,13.11
2023-04-15T18:22:07.397Z,13.06
2023-04-15T18:24:35.581Z,13.01
2023-04-15T18:27:03.874Z,12.95
2023-04-15T18:29:32.121Z,12.91
2023-04-15T18:32:00.471Z,12.84
2023-04-15T18:34:28.974Z,12.78
2023-04-15T18:36:57.462Z,12.71
2023-04-15T18:39:25.937Z,12.65
2023-04-15T18:41:54.340Z,12.59
2023-04-15T18:44:22.396Z,12.53
2023-04-15T18:46:50.139Z,12.45
2023-04-15T18:49:17.902Z,12.35
2023-04-15T18:51:45.957Z,12.28
2023-04-15T18:54:13.794Z,12.23
2023-04-15T18:56:41.922Z,12.19
2023-04-15T18:59:28.876Z,12.16
2023-04-15T19:02:01.257Z,12.10
2023-04-15T19:04:29.564Z,12.04
2023-04-15T19:06:58.942Z,12.01
2023-04-15T19:09:28.426Z,11.96
2023-04-15T19:11:56.926Z,11.91
2023-04-15T19:14:25.487Z,11.87
2023-04-15T19:16:53.463Z,11.82
2023-04-15T19:19:21.362Z,11.76
2023-04-15T19:21:50.182Z,11.72
2023-04-15T19:24:18.536Z,11.67
2023-04-15T19:26:47.905Z,11.64
2023-04-15T19:29:15.941Z,11.62
2023-04-15T19:31:43.688Z,11.58
2023-04-15T19:34:11.759Z,11.57
2023-04-15T19:36:39.854Z,11.58
2023-04-15T19:39:07.863Z,11.59
2023-04-15T19:41:36.194Z,11.62
2023-04-15T19:44:04.575Z,11.63
2023-04-15T19:46:32.712Z,11.65
2023-04-15T19:49:01.429Z,11.68
2023-04-15T19:51:29.725Z,11.72
2023-04-15T19:53:58.684Z,11.73
2023-04-15T19:56:26.877Z,11.73
2023-04-15T19:58:54.870Z,11.76
2023-04-15T20:01:22.825Z,11.75
2023-04-15T20:03:52.839Z,11.74
2023-04-15T20:06:21.601Z,11.72
2023-04-15T20:08:49.585Z,11.70
2023-04-15T20:11:17.512Z,11.65
2023-04-15T20:13:45.448Z,11.60
2023-04-15T20:16:13.653Z,11.56
2023-04-15T20:18:41.517Z,11.49
2023-04-15T20:21:09.346Z,11.44
2023-04-15T20:23:38.517Z,11.40
2023-04-15T20:26:06.755Z,11.35
2023-04-15T20:28:34.596Z,11.31
2023-04-15T20:31:02.628Z,11.27
2023-04-15T20:33:30.628Z,11.23
2023-04-15T20:35:58.758Z,11.19
2023-04-15T20:38:26.917Z,11.14
2023-04-15T20:40:54.782Z,11.12
2023-04-15T20:43:22.659Z,11.14
2023-04-15T20:45:51.018Z,11.13
2023-04-15T20:48:19.207Z,11.12
2023-04-15T20:50:47.069Z,11.11
2023-04-15T20:53:15.091Z,11.08
2023-04-15T20:55:45.892Z,11.03
2023-04-15T20:58:13.803Z,10.99
2023-04-15T21:00:41.880Z,10.98
2023-04-15T21:03:10.060Z,10.95
2023-04-15T21:05:37.925Z,10.94
2023-04-15T21:08:06.047Z,10.90
2023-04-15T21:10:35.556Z,10.87
2023-04-15T21:13:03.674Z,10.83
2023-04-15T21:15:32.058Z,10.80
2023-04-15T21:17:59.943Z,10.75
2023-04-15T21:20:28.255Z,10.71
2023-04-15T21:22:56.107Z,10.65
2023-04-15T21:25:24.327Z,10.60
2023-04-15T21:27:52.288Z,10.56
2023-04-15T21:30:20.153Z,10.53
2023-04-15T21:32:48.097Z,10.51
2023-04-15T21:35:16.013Z,10.49
2023-04-15T21:37:44.000Z,10.46
2023-04-15T21:40:12.457Z,10.44
2023-04-15T21:42:41.621Z,10.43
2023-04-15T21:45:09.828Z,10.43
2023-04-15T21:47:56.881Z,10.38
2023-04-15T21:50:25.840Z,10.37
2023-04-15T21:52:53.967Z,10.38
2023-04-15T21:55:21.853Z,10.38
2023-04-15T21:57:49.688Z,10.38
2023-04-15T22:00:17.629Z,10.38
2023-04-15T22:02:45.656Z,10.36
2023-04-15T22:05:13.971Z,10.34
2023-04-15T22:07:41.817Z,10.33
2023-04-15T22:10:09.809Z,10.31
2023-04-15T22:12:37.754Z,10.28
2023-04-15T22:15:05.945Z,10.24
2023-04-15T22:17:34.184Z,10.21
2023-04-15T22:20:02.730Z,10.16
2023-04-15T22:22:43.948Z,10.13
2023-04-15T22:25:13.085Z,10.09
2023-04-15T22:27:40.909Z,10.06
2023-04-15T22:30:09.975Z,10.05
2023-04-15T22:32:38.373Z,10.05
2023-04-15T22:35:06.747Z,10.05
2023-04-15T22:37:34.734Z,10.05
2023-04-15T22:40:03.114Z,10.02
2023-04-15T22:42:31.262Z,9.97
2023-04-15T22:44:59.118Z,9.93
2023-04-15T22:47:27.122Z,9.90
2023-04-15T22:49:54.994Z,9.88
2023-04-15T22:52:30.071Z,9.84
2023-04-15T22:54:59.324Z,9.80
2023-04-15T22:57:28.185Z,9.76
2023-04-15T22:59:56.082Z,9.72
2023-04-15T23:02:23.947Z,9.69
2023-04-15T23:04:52.090Z,9.67
2023-04-15T23:07:20.028Z,9.64
2023-04-15T23:09:48.010Z,9.61
2023-04-15T23:12:16.113Z,9.57
2023-04-15T23:14:44.430Z,9.56
2023-04-15T23:17:12.129Z,9.53
2023-04-15T23:19:40.256Z,9.50
2023-04-15T23:22:10.528Z,9.48
2023-04-15T23:24:38.488Z,9.46
2023-04-15T23:27:06.258Z,9.44
2023-04-15T23:29:33.971Z,9.41
2023-04-15T23:32:02.211Z,9.38
2023-04-15T23:34:30.469Z,9.37
2023-04-15T23:36:58.218Z,9.38
2023-04-15T23:39:26.011Z,9.40
2023-04-15T23:41:54.178Z,9.42
2023-04-15T23:44:22.322Z,9.45
2023-04-15T23:46:51.267Z,9.47
2023-04-15T23:49:20.483Z,9.48
2023-04-15T23:51:48.495Z,9.49
2023-04-15T23:54:16.378Z,9.47
2023-04-15T23:56:44.346Z,9.50
2023-04-15T23:59:12.400Z,9.53
